Time;durP1;ratioP1;P1;durP2;ratioP2;P2;SDS_P1;SDS_P2;PMS_P1;PMS_P2;Temp;Humidity;BMP_temperature;BMP_pressure;BME280_temperature;BME280_humidity;BME280_pressure;Samples;Min_cycle;Max_cycle;Signal;HPM_P1;HPM_P2
2022/12/26 00:00:41;;;;;;;5.22;4.18;;;;;;;;;;10412563;28;20030;-64
2022/12/26 00:05:41;;;;;;;6.38;3.88;;;;;;;;;;10411863;28;20068;-64
2022/12/26 00:10:42;;;;;;;5.07;4.38;;;;;;;;;;10412122;28;20108;-64
2022/12/26 00:15:42;;;;;;;5.67;4.50;;;;;;;;;;10411674;28;20074;-64
2022/12/26 00:20:43;;;;;;;5.28;4.07;;;;;;;;;;10411731;28;20026;-64
2022/12/26 00:25:43;;;;;;;5.32;4.00;;;;;;;;;;10411196;28;20048;-64
2022/12/26 00:30:43;;;;;;;4.70;3.78;;;;;;;;;;10411340;28;20108;-64
2022/12/26 00:35:43;;;;;;;5.57;3.83;;;;;;;;;;10410578;28;20025;-64
2022/12/26 00:40:44;;;;;;;4.75;3.80;;;;;;;;;;10410927;28;20392;-64
2022/12/26 00:45:46;;;;;;;4.28;3.85;;;;;;;;;;10410373;28;20041;-64
2022/12/26 00:50:46;;;;;;;4.30;3.65;;;;;;;;;;10410494;28;20013;-64
2022/12/26 00:55:47;;;;;;;4.65;3.78;;;;;;;;;;10410298;28;20029;-64
2022/12/26 01:00:48;;;;;;;4.85;3.90;;;;;;;;;;10409931;28;20026;-64
2022/12/26 01:05:49;;;;;;;4.68;3.90;;;;;;;;;;10409777;28;20512;-64
2022/12/26 01:10:50;;;;;;;5.55;4.55;;;;;;;;;;10409877;28;20021;-64
2022/12/26 01:15:51;;;;;;;6.07;3.75;;;;;;;;;;10409547;28;20025;-64
2022/12/26 01:20:56;;;;;;;6.30;4.00;;;;;;;;;;10408941;28;20049;-64
2022/12/26 01:25:56;;;;;;;4.68;4.00;;;;;;;;;;10408649;28;20075;-64
2022/12/26 01:31:00;;;;;;;4.53;3.63;;;;;;;;;;10408694;28;20031;-64
2022/12/26 01:36:00;;;;;;;5.47;4.03;;;;;;;;;;10408538;28;20473;-64
2022/12/26 01:41:15;;;;;;;5.93;4.40;;;;;;;;;;10408763;28;20037;-64
2022/12/26 01:46:18;;;;;;;5.18;4.30;;;;;;;;;;10407261;28;20034;-64
2022/12/26 01:51:20;;;;;;;4.40;4.00;;;;;;;;;;10408046;28;20401;-64
2022/12/26 01:56:28;;;;;;;4.93;4.03;;;;;;;;;;10408179;28;20165;-64
2022/12/26 02:01:30;;;;;;;4.45;4.05;;;;;;;;;;10402948;28;20025;-64
2022/12/26 02:06:31;;;;;;;4.80;4.15;;;;;;;;;;10404086;28;20040;-64
2022/12/26 02:11:33;;;;;;;7.70;4.32;;;;;;;;;;10407660;28;20028;-64
2022/12/26 02:16:35;;;;;;;6.45;3.92;;;;;;;;;;10407182;28;20037;-63
2022/12/26 02:21:50;;;;;;;4.85;4.00;;;;;;;;;;10407217;28;20029;-64
2022/12/26 02:26:54;;;;;;;6.90;4.40;;;;;;;;;;10406457;28;20160;-64
2022/12/26 02:32:12;;;;;;;5.32;4.10;;;;;;;;;;10406944;28;20025;-64
2022/12/26 02:37:33;;;;;;;5.55;3.92;;;;;;;;;;10406989;28;20116;-64
2022/12/26 02:42:36;;;;;;;4.65;4.20;;;;;;;;;;10407133;28;20439;-64
2022/12/26 02:47:49;;;;;;;4.93;3.80;;;;;;;;;;10406559;28;20022;-64
2022/12/26 03:14:21;;;;;;;4.65;4.00;;;;;;;;;;10414498;28;20021;-64
2022/12/26 03:19:22;;;;;;;5.22;4.25;;;;;;;;;;10414297;28;20021;-64
2022/12/26 03:24:24;;;;;;;6.40;4.47;;;;;;;;;;10413452;28;20534;-64
2022/12/26 03:34:43;;;;;;;;;;;;;;;;;;10414197;28;20041;-64
2022/12/26 04:44:37;;;;;;;;;;;;;;;;;;10411606;28;19913;-64
2022/12/26 04:55:02;;;;;;;5.68;4.07;;;;;;;;;;10411138;28;20501;-64
2022/12/26 05:00:03;;;;;;;4.63;4.00;;;;;;;;;;10410656;28;20022;-64
2022/12/26 05:10:27;;;;;;;4.70;4.03;;;;;;;;;;10410121;28;20033;-64
2022/12/26 05:15:27;;;;;;;4.60;4.15;;;;;;;;;;10409548;28;20393;-64
2022/12/26 05:31:06;;;;;;;4.82;3.97;;;;;;;;;;10409772;28;20477;-64
2022/12/26 05:36:06;;;;;;;4.85;3.88;;;;;;;;;;10409094;28;20030;-65
2022/12/26 05:41:07;;;;;;;5.70;4.07;;;;;;;;;;10409237;28;20036;-64
2022/12/26 05:46:07;;;;;;;3.88;3.42;;;;;;;;;;10408693;28;20028;-64
2022/12/26 05:51:07;;;;;;;3.93;3.47;;;;;;;;;;10394925;28;20087;-64
2022/12/26 05:56:12;;;;;;;4.00;3.20;;;;;;;;;;10408652;28;20089;-65
2022/12/26 06:01:14;;;;;;;4.20;3.80;;;;;;;;;;10408647;28;20025;-64
2022/12/26 06:06:14;;;;;;;4.60;4.00;;;;;;;;;;10408304;28;20076;-64
2022/12/26 06:11:15;;;;;;;5.63;3.50;;;;;;;;;;10408074;28;20428;-65
2022/12/26 06:16:16;;;;;;;4.15;3.67;;;;;;;;;;10405789;28;20060;-64
2022/12/26 06:21:18;;;;;;;4.95;4.15;;;;;;;;;;10397457;28;20033;-64
2022/12/26 06:26:18;;;;;;;3.70;3.35;;;;;;;;;;10404222;28;20049;-64
2022/12/26 06:31:20;;;;;;;4.25;3.60;;;;;;;;;;10407516;28;20030;-64
2022/12/26 06:36:21;;;;;;;4.30;3.88;;;;;;;;;;10414138;28;20037;-65
2022/12/26 06:41:24;;;;;;;4.22;3.83;;;;;;;;;;10415652;28;20045;-64
2022/12/26 06:46:24;;;;;;;5.75;3.75;;;;;;;;;;10415348;28;20484;-64
2022/12/26 06:51:25;;;;;;;3.80;3.17;;;;;;;;;;10405251;28;20025;-64
2022/12/26 06:56:26;;;;;;;4.20;3.67;;;;;;;;;;10415365;28;20498;-64
2022/12/26 07:01:27;;;;;;;4.47;3.65;;;;;;;;;;10414824;28;20370;-64
2022/12/26 07:06:29;;;;;;;5.13;4.20;;;;;;;;;;10415021;28;20029;-64
2022/12/26 07:11:30;;;;;;;5.13;4.63;;;;;;;;;;10414756;28;20025;-64
2022/12/26 07:16:33;;;;;;;6.35;4.95;;;;;;;;;;10410477;28;20030;-64
2022/12/26 07:21:33;;;;;;;7.47;5.00;;;;;;;;;;10405876;28;20457;-64
2022/12/26 07:26:33;;;;;;;6.30;5.27;;;;;;;;;;10413730;28;20052;-64
2022/12/26 07:31:34;;;;;;;6.75;4.85;;;;;;;;;;10413816;28;20466;-64
2022/12/26 07:36:34;;;;;;;7.78;5.55;;;;;;;;;;10414031;28;20082;-64
2022/12/26 07:46:53;;;;;;;6.22;5.45;;;;;;;;;;10412933;28;20435;-64
2022/12/26 07:51:53;;;;;;;8.18;5.32;;;;;;;;;;10402560;28;20029;-64
2022/12/26 07:56:54;;;;;;;7.95;5.50;;;;;;;;;;10412779;28;20403;-64
2022/12/26 08:01:56;;;;;;;5.82;5.00;;;;;;;;;;10412589;28;20045;-64
2022/12/26 08:06:56;;;;;;;6.03;4.85;;;;;;;;;;10407022;28;20022;-64
2022/12/26 08:11:57;;;;;;;8.05;5.30;;;;;;;;;;10408020;28;20412;-64
2022/12/26 08:16:57;;;;;;;5.97;5.20;;;;;;;;;;10405001;28;20030;-64
2022/12/26 08:21:57;;;;;;;8.30;5.63;;;;;;;;;;10406998;28;20033;-64
2022/12/26 08:26:57;;;;;;;7.07;5.18;;;;;;;;;;10411461;28;20045;-64
2022/12/26 08:31:58;;;;;;;6.00;5.28;;;;;;;;;;10411517;28;20037;-64
2022/12/26 08:36:58;;;;;;;8.38;5.30;;;;;;;;;;10411600;28;20025;-64
2022/12/26 08:41:58;;;;;;;6.30;5.28;;;;;;;;;;10410942;28;20109;-64
2022/12/26 08:46:59;;;;;;;6.88;5.05;;;;;;;;;;10410710;28;20029;-64
2022/12/26 08:51:59;;;;;;;5.28;4.72;;;;;;;;;;10400752;28;20535;-64
2022/12/26 08:56:59;;;;;;;6.35;4.95;;;;;;;;;;10409748;28;20393;-64
2022/12/26 09:01:59;;;;;;;5.65;5.03;;;;;;;;;;10410507;28;20052;-64
2022/12/26 09:07:00;;;;;;;5.68;4.80;;;;;;;;;;10410197;28;20040;-64
2022/12/26 09:12:00;;;;;;;5.72;4.63;;;;;;;;;;10410384;28;20029;-64
2022/12/26 09:17:00;;;;;;;5.75;4.95;;;;;;;;;;10401895;28;20052;-64
2022/12/26 09:27:20;;;;;;;6.65;5.10;;;;;;;;;;10408940;28;20509;-64
2022/12/26 09:32:20;;;;;;;5.40;4.88;;;;;;;;;;10404747;28;20065;-64
2022/12/26 09:37:20;;;;;;;6.25;5.32;;;;;;;;;;10409467;28;20053;-64
2022/12/26 09:42:56;;;;;;;6.70;4.60;;;;;;;;;;10409278;28;20025;-64
2022/12/26 09:47:59;;;;;;;5.38;4.43;;;;;;;;;;10358002;28;20508;-64
2022/12/26 09:53:02;;;;;;;5.30;4.47;;;;;;;;;;10357441;28;20061;-64
2022/12/26 09:58:21;;;;;;;5.93;5.20;;;;;;;;;;10342532;28;20040;-64
2022/12/26 10:03:21;;;;;;;;;;;;;;;;;;10361695;28;20125;-64
2022/12/26 10:08:21;;;;;;;6.47;4.75;;;;;;;;;;10360136;28;19918;-64
2022/12/26 10:13:21;;;;;;;7.00;4.97;;;;;;;;;;10342704;28;20038;-64
2022/12/26 10:18:29;;;;;;;6.55;4.95;;;;;;;;;;10355961;28;20509;-65
2022/12/26 10:23:29;;;;;;;6.00;4.45;;;;;;;;;;10407567;28;20116;-64
2022/12/26 10:28:40;;;;;;;5.20;4.47;;;;;;;;;;10407706;28;20041;-64
2022/12/26 10:33:40;;;;;;;5.72;4.38;;;;;;;;;;10393117;28;20029;-64
2022/12/26 10:38:42;;;;;;;6.35;4.68;;;;;;;;;;10407693;28;20470;-64
2022/12/26 10:43:44;;;;;;;7.13;4.88;;;;;;;;;;10407444;28;20033;-64
2022/12/26 10:48:45;;;;;;;5.45;4.88;;;;;;;;;;10397115;28;20052;-64
2022/12/26 10:53:47;;;;;;;4.82;4.28;;;;;;;;;;10407228;28;20026;-64
2022/12/26 10:59:07;;;;;;;5.32;4.60;;;;;;;;;;10407005;28;20075;-64
2022/12/26 11:04:21;;;;;;;6.28;4.50;;;;;;;;;;10402665;28;20077;-64
2022/12/26 11:09:24;;;;;;;5.60;4.60;;;;;;;;;;10406718;28;20091;-64
2022/12/26 11:14:27;;;;;;;6.90;4.75;;;;;;;;;;10395109;28;20184;-64
2022/12/26 11:19:32;;;;;;;5.90;4.50;;;;;;;;;;10395551;28;20112;-64
2022/12/26 11:24:32;;;;;;;4.82;4.22;;;;;;;;;;10413975;28;20164;-64
2022/12/26 11:29:32;;;;;;;6.72;4.50;;;;;;;;;;10414047;28;20108;-64
2022/12/26 11:34:44;;;;;;;5.55;4.47;;;;;;;;;;10413636;28;20026;-64
2022/12/26 11:39:49;;;;;;;5.55;4.45;;;;;;;;;;10408346;28;20033;-64
2022/12/26 11:44:51;;;;;;;7.05;5.03;;;;;;;;;;10409502;28;20045;-64
2022/12/26 11:49:57;;;;;;;6.00;4.57;;;;;;;;;;10402080;28;20025;-64
2022/12/26 11:54:57;;;;;;;6.45;4.80;;;;;;;;;;10412878;28;20044;-64
2022/12/26 12:00:14;;;;;;;5.75;4.50;;;;;;;;;;10413267;28;20516;-64
2022/12/26 12:05:28;;;;;;;6.20;5.03;;;;;;;;;;10412527;28;20037;-64
2022/12/26 12:10:47;;;;;;;7.20;4.72;;;;;;;;;;10412694;28;20017;-64
2022/12/26 12:16:02;;;;;;;6.05;5.15;;;;;;;;;;10412657;28;20033;-64
2022/12/26 12:21:16;;;;;;;5.50;4.75;;;;;;;;;;10411857;28;20477;-64
2022/12/26 12:26:19;;;;;;;6.60;4.90;;;;;;;;;;10402576;28;20249;-64
2022/12/26 12:31:19;;;;;;;7.53;5.60;;;;;;;;;;10410677;28;20021;-64
2022/12/26 12:36:49;;;;;;;6.35;5.15;;;;;;;;;;10411579;28;20037;-64
2022/12/26 12:41:50;;;;;;;7.30;5.30;;;;;;;;;;10409782;28;20318;-64
2022/12/26 12:46:50;;;;;;;6.22;5.07;;;;;;;;;;10411654;28;20273;-64
2022/12/26 12:52:08;;;;;;;6.80;5.32;;;;;;;;;;10397286;28;20037;-64
2022/12/26 12:57:18;;;;;;;6.88;5.22;;;;;;;;;;10410638;28;20029;-64
2022/12/26 13:02:28;;;;;;;8.68;5.28;;;;;;;;;;10404680;28;20029;-64
2022/12/26 13:07:31;;;;;;;7.25;5.05;;;;;;;;;;10406628;28;20032;-64
2022/12/26 13:12:36;;;;;;;7.40;5.78;;;;;;;;;;10408379;28;20029;-64
2022/12/26 13:17:38;;;;;;;7.68;5.47;;;;;;;;;;10397200;28;20034;-63
2022/12/26 13:28:08;;;;;;;8.10;5.80;;;;;;;;;;10409935;28;20053;-64
2022/12/26 13:33:13;;;;;;;6.80;5.20;;;;;;;;;;10409260;28;20457;-65
2022/12/26 13:38:13;;;;;;;7.90;5.20;;;;;;;;;;10409505;28;20033;-64
2022/12/26 13:48:41;;;;;;;6.35;5.57;;;;;;;;;;10388880;28;20033;-64
2022/12/26 13:53:54;;;;;;;7.45;5.55;;;;;;;;;;10408671;28;20026;-64
2022/12/26 13:59:24;;;;;;;7.57;5.50;;;;;;;;;;10400625;28;20107;-64
2022/12/26 14:04:46;;;;;;;7.00;5.65;;;;;;;;;;10396252;28;20512;-64
2022/12/26 14:09:49;;;;;;;7.53;5.82;;;;;;;;;;10399982;28;20112;-64
2022/12/26 14:15:02;;;;;;;7.32;6.00;;;;;;;;;;10407790;28;20103;-64
2022/12/26 14:20:19;;;;;;;8.13;6.00;;;;;;;;;;10395387;28;20075;-64
2022/12/26 14:25:19;;;;;;;8.55;5.90;;;;;;;;;;10407433;28;20489;-64
2022/12/26 14:30:33;;;;;;;9.37;6.40;;;;;;;;;;10406979;28;20053;-64
2022/12/26 14:35:41;;;;;;;7.15;5.85;;;;;;;;;;10407393;28;20047;-64
2022/12/26 14:40:56;;;;;;;7.67;5.93;;;;;;;;;;10407641;28;20040;-64
2022/12/26 14:45:57;;;;;;;7.80;5.65;;;;;;;;;;10407287;28;20037;-64
2022/12/26 14:51:00;;;;;;;7.10;5.25;;;;;;;;;;10396203;28;20415;-64
2022/12/26 14:56:06;;;;;;;8.20;6.28;;;;;;;;;;10411409;28;20108;-64
2022/12/26 15:01:14;;;;;;;7.75;5.15;;;;;;;;;;10416381;28;20025;-64
2022/12/26 15:06:17;;;;;;;9.20;6.20;;;;;;;;;;10414557;28;20225;-64
2022/12/26 15:11:36;;;;;;;8.60;6.22;;;;;;;;;;10414894;28;20050;-64
2022/12/26 15:16:36;;;;;;;;;;;;;;;;;;10410538;28;20021;-64
2022/12/26 15:21:54;;;;;;;7.97;6.03;;;;;;;;;;10406519;28;19913;-64
2022/12/26 15:27:07;;;;;;;6.47;5.63;;;;;;;;;;10414818;28;20413;-64
2022/12/26 15:32:27;;;;;;;6.50;5.40;;;;;;;;;;10414203;28;20053;-64
2022/12/26 15:37:49;;;;;;;6.68;4.85;;;;;;;;;;10409446;28;20033;-64
2022/12/26 15:43:08;;;;;;;5.97;4.85;;;;;;;;;;10414012;28;20049;-64
2022/12/26 15:48:11;;;;;;;6.45;5.25;;;;;;;;;;10404974;28;20425;-64
2022/12/26 15:53:18;;;;;;;6.47;5.03;;;;;;;;;;10409087;28;20424;-64
2022/12/26 15:58:21;;;;;;;5.50;5.00;;;;;;;;;;10408516;28;20385;-64
2022/12/26 16:03:28;;;;;;;7.00;5.25;;;;;;;;;;10412819;28;20029;-64
2022/12/26 16:08:40;;;;;;;6.25;5.20;;;;;;;;;;10411754;28;20057;-64
2022/12/26 16:13:58;;;;;;;6.65;5.13;;;;;;;;;;10412575;28;20414;-64
2022/12/26 16:19:13;;;;;;;5.97;5.03;;;;;;;;;;10399674;28;20318;-64
2022/12/26 16:24:15;;;;;;;6.30;5.32;;;;;;;;;;10412012;28;20029;-64
2022/12/26 16:29:17;;;;;;;7.50;5.53;;;;;;;;;;10412131;28;20045;-64
2022/12/26 16:34:18;;;;;;;6.93;5.55;;;;;;;;;;10411745;28;20100;-64
2022/12/26 16:39:21;;;;;;;8.60;6.25;;;;;;;;;;10411578;28;20034;-64
2022/12/26 16:44:41;;;;;;;7.30;6.00;;;;;;;;;;10411049;28;20121;-64
2022/12/26 16:49:43;;;;;;;8.05;6.40;;;;;;;;;;10400209;28;20484;-64
2022/12/26 16:54:44;;;;;;;7.78;6.30;;;;;;;;;;10411067;28;20040;-64
2022/12/26 16:59:55;;;;;;;8.70;6.43;;;;;;;;;;10410687;28;20032;-64
2022/12/26 17:05:01;;;;;;;8.02;6.22;;;;;;;;;;10410594;28;20034;-64
2022/12/26 17:10:01;;;;;;;7.75;6.30;;;;;;;;;;10410316;28;20034;-64
2022/12/26 17:15:02;;;;;;;7.33;6.47;;;;;;;;;;10410502;28;20052;-64
2022/12/26 17:20:20;;;;;;;9.00;6.68;;;;;;;;;;10396826;28;20546;-64
2022/12/26 17:25:21;;;;;;;10.88;6.82;;;;;;;;;;10410216;28;20025;-65
2022/12/26 17:30:29;;;;;;;8.90;6.78;;;;;;;;;;10409763;28;20040;-64
2022/12/26 17:35:31;;;;;;;7.40;6.25;;;;;;;;;;10409157;28;20045;-64
2022/12/26 17:40:39;;;;;;;9.57;6.60;;;;;;;;;;10409740;28;20409;-64
2022/12/26 17:45:40;;;;;;;8.77;6.37;;;;;;;;;;10408700;28;20555;-64
2022/12/26 17:50:42;;;;;;;8.20;6.85;;;;;;;;;;10398493;28;20022;-64
2022/12/26 17:55:43;;;;;;;9.48;7.10;;;;;;;;;;10408527;28;20092;-64
2022/12/26 18:00:44;;;;;;;11.43;7.40;;;;;;;;;;10408802;28;20114;-64
2022/12/26 18:05:46;;;;;;;11.80;6.97;;;;;;;;;;10408629;28;20033;-64
2022/12/26 18:10:46;;;;;;;9.40;7.30;;;;;;;;;;10408329;28;20036;-64
2022/12/26 18:15:46;;;;;;;10.38;7.43;;;;;;;;;;10408082;28;20477;-64
2022/12/26 18:20:47;;;;;;;9.27;6.95;;;;;;;;;;10395640;28;20029;-64
2022/12/26 18:25:47;;;;;;;9.85;7.05;;;;;;;;;;10407216;28;20053;-64
2022/12/26 18:30:48;;;;;;;11.32;7.03;;;;;;;;;;10407031;28;20026;-64
2022/12/26 18:35:48;;;;;;;8.45;7.15;;;;;;;;;;10407645;28;20022;-64
2022/12/26 18:40:49;;;;;;;9.75;7.38;;;;;;;;;;10407543;28;20480;-64
2022/12/26 18:45:50;;;;;;;11.98;7.40;;;;;;;;;;10407357;28;20361;-64
2022/12/26 18:50:50;;;;;;;9.82;6.88;;;;;;;;;;10397566;28;20095;-64
2022/12/26 18:55:52;;;;;;;9.88;7.60;;;;;;;;;;10405979;28;20469;-64
2022/12/26 19:00:52;;;;;;;11.05;7.80;;;;;;;;;;10407828;28;20036;-64
2022/12/26 19:05:52;;;;;;;11.80;8.18;;;;;;;;;;10406921;28;20389;-64
2022/12/26 19:10:52;;;;;;;11.15;7.93;;;;;;;;;;10405846;28;20025;-65
2022/12/26 19:15:53;;;;;;;13.13;8.73;;;;;;;;;;10406644;28;20030;-64
2022/12/26 19:20:53;;;;;;;12.63;8.25;;;;;;;;;;10403130;28;20030;-61
2022/12/26 19:25:53;;;;;;;14.05;8.43;;;;;;;;;;10405089;28;20401;-64
2022/12/26 19:30:53;;;;;;;9.90;7.40;;;;;;;;;;10403955;28;20025;-64
2022/12/26 19:35:54;;;;;;;9.45;7.32;;;;;;;;;;10402397;28;20025;-66
2022/12/26 19:41:04;;;;;;;17.75;8.00;;;;;;;;;;10407069;28;20064;-74
2022/12/26 19:46:06;;;;;;;20.58;8.93;;;;;;;;;;10411700;28;20484;-74
2022/12/26 19:51:07;;;;;;;20.60;8.95;;;;;;;;;;10390996;28;20389;-69
2022/12/26 19:56:08;;;;;;;20.88;8.50;;;;;;;;;;10402684;28;20060;-74
2022/12/26 20:01:10;;;;;;;25.65;9.20;;;;;;;;;;10412997;28;20083;-66
2022/12/26 20:06:12;;;;;;;22.55;8.60;;;;;;;;;;10412150;28;20033;-65
2022/12/26 20:11:18;;;;;;;17.77;9.00;;;;;;;;;;10411889;28;20049;-63
2022/12/26 20:16:19;;;;;;;16.92;9.43;;;;;;;;;;10412214;28;20094;-65
2022/12/26 20:21:20;;;;;;;26.27;8.50;;;;;;;;;;10411696;28;20533;-65
2022/12/26 20:26:21;;;;;;;23.75;10.02;;;;;;;;;;10411259;28;20038;-66
2022/12/26 20:31:22;;;;;;;22.30;9.38;;;;;;;;;;10411120;28;20065;-64
2022/12/26 20:36:23;;;;;;;24.90;8.60;;;;;;;;;;10404906;28;20113;-64
2022/12/26 20:41:24;;;;;;;27.63;8.48;;;;;;;;;;10407057;28;20030;-65
2022/12/26 20:46:25;;;;;;;24.42;8.63;;;;;;;;;;10410822;28;20041;-65
2022/12/26 20:51:29;;;;;;;18.73;8.82;;;;;;;;;;10400854;28;20028;-64
2022/12/26 20:56:29;;;;;;;14.85;8.50;;;;;;;;;;10402984;28;20508;-64
2022/12/26 21:01:30;;;;;;;16.10;8.23;;;;;;;;;;10410563;28;20049;-65
2022/12/26 21:06:32;;;;;;;22.60;8.98;;;;;;;;;;10404465;28;20434;-67
2022/12/26 21:11:34;;;;;;;22.50;9.20;;;;;;;;;;10402995;28;20025;-65
2022/12/26 21:16:40;;;;;;;31.52;10.40;;;;;;;;;;10391624;28;20057;-64
2022/12/26 21:21:42;;;;;;;21.00;9.60;;;;;;;;;;10393985;28;20060;-64
2022/12/26 21:26:43;;;;;;;18.83;9.90;;;;;;;;;;10395292;28;20060;-65
2022/12/26 21:31:43;;;;;;;31.73;10.55;;;;;;;;;;10393993;28;20036;-64
2022/12/26 21:42:04;;;;;;;20.02;9.95;;;;;;;;;;10401885;28;20045;-65
2022/12/26 21:47:06;;;;;;;24.75;10.88;;;;;;;;;;10398902;28;20037;-64
2022/12/26 21:52:07;;;;;;;23.50;11.50;;;;;;;;;;10408537;28;20033;-66
2022/12/26 21:57:07;;;;;;;18.85;10.38;;;;;;;;;;10407767;28;20440;-64
2022/12/26 22:04:17;;;;;;;24.40;10.10;;;;;;;;;;10408468;28;20025;-66
2022/12/26 22:07:31;;;;;;;19.70;11.07;;;;;;;;;;10407840;28;20060;-65
2022/12/26 22:17:50;;;;;;;19.35;10.52;;;;;;;;;;10394601;28;20045;-64
2022/12/26 22:22:51;;;;;;;19.13;10.75;;;;;;;;;;10404853;28;20025;-67
2022/12/26 22:27:51;;;;;;;18.77;10.93;;;;;;;;;;10407101;28;20041;-74
2022/12/26 22:32:51;;;;;;;18.45;11.38;;;;;;;;;;10407385;28;20105;-75
2022/12/26 22:37:51;;;;;;;19.58;11.45;;;;;;;;;;10407548;28;20401;-73
2022/12/26 22:42:52;;;;;;;23.60;11.73;;;;;;;;;;10407520;28;20041;-73
2022/12/26 22:47:52;;;;;;;16.67;11.13;;;;;;;;;;10398580;28;20026;-73
2022/12/26 22:52:52;;;;;;;19.27;10.95;;;;;;;;;;10404242;28;20095;-73
2022/12/26 22:57:53;;;;;;;18.30;11.10;;;;;;;;;;10406964;28;20530;-75
2022/12/26 23:02:53;;;;;;;16.75;10.60;;;;;;;;;;10405778;28;20459;-68
2022/12/26 23:07:54;;;;;;;19.27;10.10;;;;;;;;;;10406986;28;20022;-66
2022/12/26 23:12:54;;;;;;;22.45;10.63;;;;;;;;;;10394511;28;20107;-66
2022/12/26 23:23:36;;;;;;;17.23;10.73;;;;;;;;;;10408421;28;20346;-64
2022/12/26 23:33:55;;;;;;;23.35;10.38;;;;;;;;;;10401494;28;20120;-64
2022/12/26 23:38:55;;;;;;;16.65;9.82;;;;;;;;;;10410399;28;20380;-65
2022/12/26 23:43:56;;;;;;;16.67;9.65;;;;;;;;;;10410069;28;20324;-65
2022/12/26 23:48:56;;;;;;;17.05;9.50;;;;;;;;;;10403080;28;20437;-64
2022/12/26 23:53:56;;;;;;;15.82;9.98;;;;;;;;;;10413199;28;20029;-63
2022/12/26 23:58:57;;;;;;;16.98;10.65;;;;;;;;;;10405611;28;20068;-64
